TVS34N LKMT-HEGN
Flight info
| Callsign | TVS34N |
|---|---|
| Flight time | 3h 26m |
| Altitude | 33000 |
| Route | BILNA B45 KOPAT DCT LITKU/N0438F370 DCT DEGET DCT LOMOS DCT NIKTI DCT RIGRO DCT PAXIS L607 NABSI P557 OBRAN L321 REXUM M872 HGD |
| Aircraft | B38M/M-SDE1FGHILORVWXY/HB1 |
Departure
| Time | 2026-04-28 20:13 |
|---|---|
| Airport | Leoš Janáček Airport Ostrava (LKMT) |
Arrival
| Time | 2026-04-28 23:40 |
|---|---|
| Airport | Hurghada International Airport (HEGN) |
| Time | Latitude | Longitude | Altitude | Speed | Heading |
|---|---|---|---|---|---|
| 2026-04-28 19:58 | 49.69534 | 18.11924 | 823 ft | 0 kts | 185° |
| 2026-04-28 20:09 | 49.69517 | 18.11905 | 822 ft | 7 kts | 243° |
| 2026-04-28 20:09 | 49.69553 | 18.11847 | 823 ft | 11 kts | 346° |
| 2026-04-28 20:10 | 49.69601 | 18.11760 | 823 ft | 15 kts | 246° |
| 2026-04-28 20:10 | 49.69498 | 18.11588 | 823 ft | 27 kts | 226° |
| 2026-04-28 20:10 | 49.69361 | 18.11365 | 823 ft | 30 kts | 226° |
| 2026-04-28 20:10 | 49.69217 | 18.11131 | 823 ft | 32 kts | 226° |
| 2026-04-28 20:11 | 49.69058 | 18.10876 | 823 ft | 33 kts | 226° |
| 2026-04-28 20:11 | 49.68893 | 18.10611 | 823 ft | 35 kts | 226° |
| 2026-04-28 20:11 | 49.68727 | 18.10332 | 823 ft | 23 kts | 243° |
| 2026-04-28 20:11 | 49.68728 | 18.10313 | 823 ft | 2 kts | 311° |
| 2026-04-28 20:12 | 49.68803 | 18.10251 | 824 ft | 20 kts | 317° |
| 2026-04-28 20:12 | 49.68893 | 18.10124 | 825 ft | 9 kts | 317° |
| 2026-04-28 20:12 | 49.68929 | 18.10072 | 830 ft | 6 kts | 317° |
| 2026-04-28 20:12 | 49.68961 | 18.10045 | 831 ft | 12 kts | 350° |
| 2026-04-28 20:13 | 49.69049 | 18.10158 | 831 ft | 31 kts | 47° |
| 2026-04-28 20:13 | 49.69389 | 18.10712 | 832 ft | 109 kts | 46° |
| 2026-04-28 20:13 | 49.70067 | 18.11810 | 854 ft | 167 kts | 47° |
| 2026-04-28 20:13 | 49.70911 | 18.13162 | 1518 ft | 175 kts | 44° |
| 2026-04-28 20:14 | 49.71726 | 18.14457 | 2740 ft | 166 kts | 48° |
| 2026-04-28 20:14 | 49.72578 | 18.15841 | 3292 ft | 188 kts | 48° |
| 2026-04-28 20:14 | 49.73522 | 18.17374 | 3790 ft | 210 kts | 47° |
| 2026-04-28 20:14 | 49.74580 | 18.19093 | 4267 ft | 232 kts | 47° |
| 2026-04-28 20:15 | 49.75682 | 18.20885 | 5360 ft | 229 kts | 46° |
| 2026-04-28 20:15 | 49.76739 | 18.22810 | 6156 ft | 245 kts | 59° |
| 2026-04-28 20:15 | 49.77219 | 18.25442 | 6773 ft | 269 kts | 87° |
| 2026-04-28 20:15 | 49.76751 | 18.28194 | 7916 ft | 263 kts | 117° |
| 2026-04-28 20:16 | 49.75594 | 18.30381 | 8997 ft | 267 kts | 135° |
| 2026-04-28 20:16 | 49.74220 | 18.32433 | 9672 ft | 283 kts | 135° |
| 2026-04-28 20:16 | 49.72750 | 18.34602 | 10225 ft | 302 kts | 137° |
| 2026-04-28 20:16 | 49.71587 | 18.35865 | 10537 ft | 315 kts | 154° |
| 2026-04-28 20:17 | 49.68690 | 18.37030 | 11167 ft | 336 kts | 172° |
| 2026-04-28 20:17 | 49.66339 | 18.37664 | 11810 ft | 347 kts | 172° |
| 2026-04-28 20:17 | 49.63954 | 18.38300 | 12738 ft | 348 kts | 172° |
| 2026-04-28 20:17 | 49.62358 | 18.38722 | 13313 ft | 352 kts | 172° |
| 2026-04-28 20:18 | 49.59925 | 18.39361 | 14163 ft | 356 kts | 172° |
| 2026-04-28 20:18 | 49.57465 | 18.40006 | 14926 ft | 360 kts | 173° |
| 2026-04-28 20:18 | 49.54977 | 18.40657 | 15692 ft | 364 kts | 173° |
| 2026-04-28 20:18 | 49.52465 | 18.41315 | 16450 ft | 369 kts | 173° |
| 2026-04-28 20:19 | 49.49914 | 18.41980 | 17183 ft | 374 kts | 173° |
| 2026-04-28 20:19 | 49.47324 | 18.42656 | 17887 ft | 378 kts | 173° |
| 2026-04-28 20:19 | 49.44714 | 18.43335 | 18588 ft | 382 kts | 173° |
| 2026-04-28 20:19 | 49.42074 | 18.44023 | 19172 ft | 387 kts | 173° |
| 2026-04-28 20:20 | 49.39455 | 18.44831 | 19752 ft | 393 kts | 165° |
| 2026-04-28 20:20 | 49.36931 | 18.46538 | 20347 ft | 398 kts | 157° |
| 2026-04-28 20:20 | 49.34403 | 18.48345 | 20872 ft | 404 kts | 158° |
| 2026-04-28 20:20 | 49.31841 | 18.50184 | 21427 ft | 408 kts | 158° |
| 2026-04-28 20:21 | 49.29256 | 18.52047 | 21973 ft | 412 kts | 158° |
| 2026-04-28 20:21 | 49.26660 | 18.53920 | 22580 ft | 415 kts | 158° |
| 2026-04-28 20:21 | 49.24024 | 18.55821 | 23106 ft | 421 kts | 158° |
| 2026-04-28 20:21 | 49.21367 | 18.57736 | 23683 ft | 424 kts | 158° |
| 2026-04-28 20:22 | 49.18679 | 18.59670 | 24174 ft | 428 kts | 158° |
| 2026-04-28 20:22 | 49.15966 | 18.61621 | 24661 ft | 432 kts | 158° |
| 2026-04-28 20:22 | 49.13238 | 18.63579 | 25123 ft | 436 kts | 159° |
| 2026-04-28 20:22 | 49.10535 | 18.65612 | 25564 ft | 442 kts | 152° |
| 2026-04-28 20:23 | 49.08005 | 18.68347 | 26054 ft | 447 kts | 147° |
| 2026-04-28 20:23 | 49.05464 | 18.71144 | 26483 ft | 451 kts | 147° |
| 2026-04-28 20:23 | 49.02903 | 18.73952 | 26944 ft | 455 kts | 147° |
| 2026-04-28 20:23 | 49.00323 | 18.76779 | 27350 ft | 459 kts | 148° |
| 2026-04-28 20:24 | 48.97722 | 18.79628 | 27742 ft | 462 kts | 148° |
| 2026-04-28 20:24 | 48.95098 | 18.82498 | 28169 ft | 466 kts | 148° |
| 2026-04-28 20:24 | 48.92452 | 18.85388 | 28565 ft | 470 kts | 148° |
| 2026-04-28 20:24 | 48.89786 | 18.88296 | 28968 ft | 473 kts | 148° |
| 2026-04-28 20:25 | 48.87104 | 18.91218 | 29368 ft | 477 kts | 148° |
| 2026-04-28 20:25 | 48.84396 | 18.94164 | 29768 ft | 480 kts | 149° |
| 2026-04-28 20:25 | 48.81660 | 18.97137 | 30151 ft | 483 kts | 149° |
| 2026-04-28 20:25 | 48.78919 | 19.00111 | 30485 ft | 487 kts | 149° |
| 2026-04-28 20:26 | 48.76152 | 19.03110 | 30777 ft | 490 kts | 149° |
| 2026-04-28 20:26 | 48.73402 | 19.06084 | 31094 ft | 492 kts | 149° |
| 2026-04-28 20:26 | 48.70603 | 19.09110 | 31399 ft | 495 kts | 149° |
| 2026-04-28 20:26 | 48.67791 | 19.12144 | 31703 ft | 497 kts | 149° |
| 2026-04-28 20:27 | 48.64966 | 19.15187 | 32021 ft | 500 kts | 149° |
| 2026-04-28 20:27 | 48.62114 | 19.18256 | 32318 ft | 503 kts | 149° |
| 2026-04-28 20:27 | 48.59246 | 19.21338 | 32610 ft | 506 kts | 149° |
| 2026-04-28 20:27 | 48.56410 | 19.24381 | 32903 ft | 508 kts | 149° |
| 2026-04-28 20:28 | 48.53505 | 19.27492 | 33165 ft | 512 kts | 149° |
| 2026-04-28 20:28 | 48.47659 | 19.33743 | 33195 ft | 513 kts | 149° |
| 2026-04-28 20:29 | 48.41870 | 19.39914 | 33176 ft | 512 kts | 149° |
| 2026-04-28 20:29 | 48.36037 | 19.46114 | 33180 ft | 513 kts | 149° |
| 2026-04-28 20:30 | 48.30205 | 19.52297 | 33186 ft | 513 kts | 149° |
| 2026-04-28 20:30 | 48.24363 | 19.58473 | 33183 ft | 512 kts | 149° |
| 2026-04-28 20:31 | 48.18435 | 19.64383 | 33183 ft | 512 kts | 151° |
| 2026-04-28 20:31 | 48.12535 | 19.70260 | 33173 ft | 512 kts | 151° |
| 2026-04-28 20:32 | 48.06602 | 19.76159 | 33322 ft | 513 kts | 151° |
| 2026-04-28 20:32 | 48.03620 | 19.79117 | 33650 ft | 515 kts | 151° |
| 2026-04-28 20:32 | 48.00608 | 19.82101 | 33875 ft | 519 kts | 151° |
| 2026-04-28 20:32 | 47.97590 | 19.85087 | 34152 ft | 522 kts | 151° |
| 2026-04-28 20:33 | 47.94517 | 19.88032 | 34435 ft | 521 kts | 154° |
| 2026-04-28 20:33 | 47.91436 | 19.90727 | 34812 ft | 520 kts | 154° |
| 2026-04-28 20:33 | 47.88325 | 19.93479 | 35199 ft | 519 kts | 153° |
| 2026-04-28 20:33 | 47.85233 | 19.96231 | 35603 ft | 517 kts | 153° |
| 2026-04-28 20:34 | 47.82100 | 19.99018 | 36003 ft | 516 kts | 153° |
| 2026-04-28 20:34 | 47.79067 | 20.01715 | 36375 ft | 514 kts | 153° |
| 2026-04-28 20:34 | 47.76000 | 20.04437 | 36747 ft | 512 kts | 153° |
| 2026-04-28 20:34 | 47.72938 | 20.07151 | 37094 ft | 512 kts | 153° |
| 2026-04-28 20:35 | 47.69873 | 20.09864 | 37199 ft | 512 kts | 153° |
| 2026-04-28 20:35 | 47.63767 | 20.15258 | 37168 ft | 509 kts | 153° |
| 2026-04-28 20:36 | 47.57657 | 20.20620 | 37163 ft | 509 kts | 153° |
| 2026-04-28 20:36 | 47.51592 | 20.25929 | 37155 ft | 510 kts | 153° |
| 2026-04-28 20:37 | 47.45485 | 20.31261 | 37156 ft | 510 kts | 153° |
| 2026-04-28 20:37 | 47.39353 | 20.36600 | 37152 ft | 510 kts | 153° |
| 2026-04-28 20:38 | 47.33235 | 20.41912 | 37151 ft | 510 kts | 153° |
| 2026-04-28 20:38 | 47.27107 | 20.47217 | 37152 ft | 510 kts | 153° |
| 2026-04-28 20:39 | 47.21021 | 20.52473 | 37149 ft | 510 kts | 153° |
| 2026-04-28 20:39 | 47.14906 | 20.57740 | 37152 ft | 510 kts | 154° |
| 2026-04-28 20:40 | 47.08785 | 20.62998 | 37150 ft | 509 kts | 154° |
| 2026-04-28 20:40 | 47.02667 | 20.68238 | 37144 ft | 509 kts | 154° |
| 2026-04-28 20:41 | 46.96543 | 20.73470 | 37143 ft | 509 kts | 154° |
| 2026-04-28 20:41 | 46.90400 | 20.78704 | 37138 ft | 509 kts | 154° |
| 2026-04-28 20:42 | 46.84271 | 20.83913 | 37135 ft | 509 kts | 154° |
| 2026-04-28 20:42 | 46.78173 | 20.89080 | 37140 ft | 509 kts | 154° |
| 2026-04-28 20:43 | 46.72043 | 20.94262 | 37135 ft | 509 kts | 154° |
| 2026-04-28 20:43 | 46.65901 | 20.99440 | 37137 ft | 509 kts | 154° |
| 2026-04-28 20:44 | 46.59762 | 21.04601 | 37136 ft | 509 kts | 154° |
| 2026-04-28 20:44 | 46.53669 | 21.09711 | 37130 ft | 508 kts | 154° |
| 2026-04-28 20:45 | 46.47500 | 21.14870 | 37129 ft | 508 kts | 154° |
| 2026-04-28 20:45 | 46.41415 | 21.19946 | 37130 ft | 508 kts | 154° |
| 2026-04-28 20:46 | 46.35276 | 21.25053 | 37128 ft | 507 kts | 154° |
| 2026-04-28 20:46 | 46.29148 | 21.30139 | 37127 ft | 507 kts | 155° |
| 2026-04-28 20:47 | 46.23056 | 21.35181 | 37126 ft | 507 kts | 155° |
| 2026-04-28 20:47 | 46.16936 | 21.40233 | 37126 ft | 506 kts | 155° |
| 2026-04-28 20:48 | 46.10818 | 21.45271 | 37125 ft | 506 kts | 155° |
| 2026-04-28 20:48 | 46.04709 | 21.50288 | 37120 ft | 505 kts | 155° |
| 2026-04-28 20:49 | 45.98597 | 21.55295 | 37124 ft | 504 kts | 155° |
| 2026-04-28 20:49 | 45.92496 | 21.60279 | 37130 ft | 504 kts | 155° |
| 2026-04-28 20:50 | 45.86399 | 21.65249 | 37125 ft | 504 kts | 155° |
| 2026-04-28 20:50 | 45.80302 | 21.70205 | 37128 ft | 503 kts | 155° |
| 2026-04-28 20:51 | 45.74204 | 21.75149 | 37123 ft | 503 kts | 155° |
| 2026-04-28 20:51 | 45.68142 | 21.80052 | 37123 ft | 503 kts | 155° |
| 2026-04-28 20:52 | 45.62043 | 21.84973 | 37125 ft | 502 kts | 155° |
| 2026-04-28 20:52 | 45.55957 | 21.89871 | 37131 ft | 502 kts | 155° |
| 2026-04-28 20:53 | 45.46825 | 21.97195 | 37141 ft | 502 kts | 155° |
| 2026-04-28 20:53 | 45.40779 | 22.02031 | 37125 ft | 501 kts | 155° |
| 2026-04-28 20:54 | 45.34684 | 22.06893 | 37133 ft | 502 kts | 155° |
| 2026-04-28 20:54 | 45.28589 | 22.11744 | 37135 ft | 502 kts | 155° |
| 2026-04-28 20:55 | 45.22496 | 22.16580 | 37139 ft | 502 kts | 155° |
| 2026-04-28 20:55 | 45.16390 | 22.21416 | 37124 ft | 502 kts | 155° |
| 2026-04-28 20:56 | 45.10280 | 22.26242 | 37118 ft | 502 kts | 155° |
| 2026-04-28 20:56 | 45.04173 | 22.31054 | 37115 ft | 502 kts | 155° |
| 2026-04-28 20:57 | 44.98055 | 22.35862 | 37110 ft | 503 kts | 155° |
| 2026-04-28 20:57 | 44.91964 | 22.40638 | 37109 ft | 504 kts | 155° |
| 2026-04-28 20:58 | 44.85818 | 22.45444 | 37090 ft | 504 kts | 155° |
| 2026-04-28 20:58 | 44.80711 | 22.49429 | 37100 ft | 505 kts | 155° |
| 2026-04-28 20:59 | 44.73558 | 22.54998 | 37077 ft | 505 kts | 155° |
| 2026-04-28 20:59 | 44.67405 | 22.59775 | 37092 ft | 504 kts | 155° |
| 2026-04-28 21:00 | 44.62288 | 22.63738 | 37079 ft | 503 kts | 155° |
| 2026-04-28 21:00 | 44.56151 | 22.68482 | 37072 ft | 502 kts | 155° |
| 2026-04-28 21:01 | 44.50023 | 22.73207 | 37074 ft | 501 kts | 155° |
| 2026-04-28 21:01 | 44.43948 | 22.77879 | 37072 ft | 500 kts | 155° |
| 2026-04-28 21:02 | 44.37838 | 22.82568 | 37075 ft | 499 kts | 155° |
| 2026-04-28 21:02 | 44.31745 | 22.87232 | 37072 ft | 498 kts | 155° |
| 2026-04-28 21:03 | 44.25690 | 22.91857 | 37071 ft | 498 kts | 155° |
| 2026-04-28 21:03 | 44.19607 | 22.96491 | 37072 ft | 498 kts | 155° |
| 2026-04-28 21:04 | 44.13522 | 23.01116 | 37075 ft | 498 kts | 155° |
| 2026-04-28 21:04 | 44.07436 | 23.05731 | 37084 ft | 497 kts | 155° |
| 2026-04-28 21:05 | 44.01356 | 23.10330 | 37074 ft | 497 kts | 155° |
| 2026-04-28 21:05 | 43.95259 | 23.14844 | 37059 ft | 491 kts | 165° |
| 2026-04-28 21:06 | 43.88849 | 23.17731 | 37075 ft | 490 kts | 164° |
| 2026-04-28 21:06 | 43.82386 | 23.20784 | 37135 ft | 489 kts | 166° |
| 2026-04-28 21:07 | 43.75928 | 23.23794 | 37072 ft | 488 kts | 166° |
| 2026-04-28 21:07 | 43.69514 | 23.26828 | 37075 ft | 489 kts | 166° |
| 2026-04-28 21:08 | 43.63071 | 23.29874 | 37072 ft | 489 kts | 166° |
| 2026-04-28 21:08 | 43.56620 | 23.32918 | 37079 ft | 489 kts | 166° |
| 2026-04-28 21:09 | 43.50213 | 23.35933 | 37081 ft | 489 kts | 166° |
| 2026-04-28 21:09 | 43.43771 | 23.38959 | 37079 ft | 488 kts | 166° |
| 2026-04-28 21:10 | 43.37329 | 23.41977 | 37089 ft | 488 kts | 166° |
| 2026-04-28 21:10 | 43.30894 | 23.44986 | 37096 ft | 488 kts | 166° |
| 2026-04-28 21:11 | 43.24465 | 23.47985 | 37095 ft | 487 kts | 166° |
| 2026-04-28 21:11 | 43.18064 | 23.50964 | 37096 ft | 487 kts | 165° |
| 2026-04-28 21:12 | 43.11626 | 23.53953 | 37086 ft | 487 kts | 165° |
| 2026-04-28 21:12 | 43.05197 | 23.56797 | 37090 ft | 482 kts | 173° |
| 2026-04-28 21:13 | 42.98632 | 23.57953 | 37089 ft | 477 kts | 179° |
| 2026-04-28 21:13 | 42.92035 | 23.58948 | 37111 ft | 477 kts | 179° |
| 2026-04-28 21:14 | 42.85444 | 23.59954 | 37106 ft | 476 kts | 179° |
| 2026-04-28 21:14 | 42.78868 | 23.60960 | 37096 ft | 475 kts | 179° |
| 2026-04-28 21:15 | 42.72333 | 23.61958 | 37098 ft | 474 kts | 179° |
| 2026-04-28 21:15 | 42.65779 | 23.62955 | 37101 ft | 473 kts | 179° |
| 2026-04-28 21:16 | 42.59242 | 23.63945 | 37104 ft | 472 kts | 179° |
| 2026-04-28 21:16 | 42.52704 | 23.64930 | 37106 ft | 471 kts | 178° |
| 2026-04-28 21:17 | 42.46190 | 23.65911 | 37111 ft | 471 kts | 179° |
| 2026-04-28 21:17 | 42.39667 | 23.66889 | 37109 ft | 471 kts | 178° |
| 2026-04-28 21:18 | 42.33156 | 23.67862 | 37119 ft | 471 kts | 179° |
| 2026-04-28 21:18 | 42.26676 | 23.68828 | 37121 ft | 471 kts | 179° |
| 2026-04-28 21:19 | 42.20157 | 23.69796 | 37121 ft | 471 kts | 178° |
| 2026-04-28 21:19 | 42.13633 | 23.70771 | 37122 ft | 471 kts | 178° |
| 2026-04-28 21:20 | 42.07124 | 23.71737 | 37131 ft | 471 kts | 178° |
| 2026-04-28 21:20 | 42.03893 | 23.72691 | 37116 ft | 478 kts | 164° |
| 2026-04-28 21:20 | 42.00873 | 23.74630 | 37132 ft | 484 kts | 150° |
| 2026-04-28 21:21 | 41.95141 | 23.79429 | 37131 ft | 486 kts | 152° |
| 2026-04-28 21:21 | 41.89355 | 23.84140 | 37138 ft | 486 kts | 152° |
| 2026-04-28 21:22 | 41.83611 | 23.88803 | 37137 ft | 486 kts | 152° |
| 2026-04-28 21:22 | 41.78789 | 23.92708 | 37138 ft | 486 kts | 152° |
| 2026-04-28 21:23 | 41.72013 | 23.98185 | 37141 ft | 486 kts | 152° |
| 2026-04-28 21:23 | 41.66216 | 24.02860 | 37135 ft | 486 kts | 152° |
| 2026-04-28 21:24 | 41.60419 | 24.07525 | 37133 ft | 486 kts | 152° |
| 2026-04-28 21:24 | 41.54614 | 24.12079 | 37126 ft | 483 kts | 159° |
| 2026-04-28 21:25 | 41.48336 | 24.15114 | 37123 ft | 481 kts | 164° |
| 2026-04-28 21:25 | 41.42025 | 24.18094 | 37131 ft | 481 kts | 164° |
| 2026-04-28 21:26 | 41.35702 | 24.21058 | 37133 ft | 481 kts | 164° |
| 2026-04-28 21:26 | 41.29397 | 24.24006 | 37128 ft | 480 kts | 164° |
| 2026-04-28 21:27 | 41.23086 | 24.26951 | 37124 ft | 480 kts | 164° |
| 2026-04-28 21:27 | 41.16777 | 24.29888 | 37124 ft | 480 kts | 165° |
| 2026-04-28 21:28 | 41.10475 | 24.32817 | 37120 ft | 480 kts | 165° |
| 2026-04-28 21:28 | 41.04163 | 24.35745 | 37104 ft | 479 kts | 165° |
| 2026-04-28 21:29 | 40.97904 | 24.38641 | 37113 ft | 479 kts | 164° |
| 2026-04-28 21:29 | 40.91598 | 24.41553 | 37104 ft | 479 kts | 164° |
| 2026-04-28 21:30 | 40.85290 | 24.44461 | 37100 ft | 479 kts | 164° |
| 2026-04-28 21:30 | 40.78993 | 24.47358 | 37098 ft | 479 kts | 164° |
| 2026-04-28 21:31 | 40.72733 | 24.50232 | 37112 ft | 479 kts | 164° |
| 2026-04-28 21:31 | 40.66429 | 24.53120 | 37118 ft | 479 kts | 164° |
| 2026-04-28 21:32 | 40.60111 | 24.56009 | 37116 ft | 479 kts | 164° |
| 2026-04-28 21:32 | 40.53801 | 24.58888 | 37108 ft | 479 kts | 164° |
| 2026-04-28 21:33 | 40.47532 | 24.61744 | 37112 ft | 479 kts | 164° |
| 2026-04-28 21:33 | 40.41219 | 24.64613 | 37120 ft | 479 kts | 164° |
| 2026-04-28 21:34 | 40.34913 | 24.67474 | 37118 ft | 479 kts | 164° |
| 2026-04-28 21:34 | 40.28632 | 24.70317 | 37112 ft | 479 kts | 164° |
| 2026-04-28 21:35 | 40.22325 | 24.73168 | 37114 ft | 479 kts | 164° |
| 2026-04-28 21:35 | 40.16017 | 24.76012 | 37115 ft | 479 kts | 165° |
| 2026-04-28 21:36 | 40.09747 | 24.78834 | 37114 ft | 479 kts | 164° |
| 2026-04-28 21:36 | 40.03440 | 24.81667 | 37112 ft | 479 kts | 164° |
| 2026-04-28 21:37 | 39.97128 | 24.84497 | 37110 ft | 479 kts | 164° |
| 2026-04-28 21:37 | 39.90851 | 24.87305 | 37110 ft | 479 kts | 165° |
| 2026-04-28 21:38 | 39.84529 | 24.90129 | 37109 ft | 480 kts | 164° |
| 2026-04-28 21:38 | 39.78199 | 24.92949 | 37106 ft | 480 kts | 164° |
| 2026-04-28 21:39 | 39.71903 | 24.95751 | 37110 ft | 480 kts | 165° |
| 2026-04-28 21:39 | 39.65561 | 24.98566 | 37109 ft | 481 kts | 165° |
| 2026-04-28 21:40 | 39.59215 | 25.01378 | 37111 ft | 481 kts | 165° |
| 2026-04-28 21:40 | 39.52880 | 25.04180 | 37105 ft | 481 kts | 165° |
| 2026-04-28 21:41 | 39.46546 | 25.06976 | 37109 ft | 481 kts | 165° |
| 2026-04-28 21:41 | 39.40202 | 25.09771 | 37106 ft | 481 kts | 165° |
| 2026-04-28 21:42 | 39.33898 | 25.12543 | 37104 ft | 481 kts | 165° |
| 2026-04-28 21:42 | 39.27546 | 25.15330 | 37100 ft | 482 kts | 165° |
| 2026-04-28 21:43 | 39.22263 | 25.17645 | 37099 ft | 482 kts | 165° |
| 2026-04-28 21:43 | 39.15896 | 25.20429 | 37096 ft | 483 kts | 165° |
| 2026-04-28 21:44 | 39.09519 | 25.23212 | 37094 ft | 483 kts | 165° |
| 2026-04-28 21:44 | 39.03145 | 25.25989 | 37093 ft | 484 kts | 165° |
| 2026-04-28 21:45 | 38.96795 | 25.28751 | 37094 ft | 484 kts | 165° |
| 2026-04-28 21:45 | 38.90408 | 25.31522 | 37093 ft | 484 kts | 165° |
| 2026-04-28 21:46 | 38.84018 | 25.34290 | 37090 ft | 485 kts | 165° |
| 2026-04-28 21:46 | 38.77623 | 25.37055 | 37085 ft | 485 kts | 165° |
| 2026-04-28 21:47 | 38.71250 | 25.39806 | 37082 ft | 485 kts | 165° |
| 2026-04-28 21:47 | 38.64856 | 25.42560 | 37081 ft | 484 kts | 165° |
| 2026-04-28 21:48 | 38.58454 | 25.45312 | 37077 ft | 484 kts | 165° |
| 2026-04-28 21:48 | 38.52105 | 25.48036 | 37078 ft | 484 kts | 165° |
| 2026-04-28 21:49 | 38.45726 | 25.50768 | 37076 ft | 483 kts | 165° |
| 2026-04-28 21:49 | 38.39346 | 25.53496 | 37074 ft | 483 kts | 165° |
| 2026-04-28 21:50 | 38.32956 | 25.56223 | 37069 ft | 484 kts | 165° |
| 2026-04-28 21:50 | 38.26567 | 25.58944 | 37073 ft | 484 kts | 165° |
| 2026-04-28 21:51 | 38.20167 | 25.61665 | 37069 ft | 484 kts | 165° |
| 2026-04-28 21:51 | 38.13805 | 25.64364 | 37070 ft | 484 kts | 165° |
| 2026-04-28 21:52 | 38.07404 | 25.67075 | 37070 ft | 485 kts | 165° |
| 2026-04-28 21:52 | 38.01002 | 25.69782 | 37066 ft | 485 kts | 165° |
| 2026-04-28 21:53 | 37.94588 | 25.72489 | 37065 ft | 485 kts | 165° |
| 2026-04-28 21:53 | 37.88172 | 25.75192 | 37056 ft | 485 kts | 165° |
| 2026-04-28 21:54 | 37.81762 | 25.77889 | 37060 ft | 485 kts | 165° |
| 2026-04-28 21:54 | 37.75375 | 25.80570 | 37060 ft | 486 kts | 165° |
| 2026-04-28 21:55 | 37.68962 | 25.83258 | 37058 ft | 486 kts | 165° |
| 2026-04-28 21:55 | 37.62538 | 25.85945 | 37058 ft | 486 kts | 165° |
| 2026-04-28 21:56 | 37.56115 | 25.88639 | 37053 ft | 487 kts | 164° |
| 2026-04-28 21:56 | 37.49675 | 25.91345 | 37054 ft | 487 kts | 165° |
| 2026-04-28 21:57 | 37.43272 | 25.94033 | 37053 ft | 488 kts | 165° |
| 2026-04-28 21:57 | 37.36812 | 25.96739 | 37052 ft | 488 kts | 165° |
| 2026-04-28 21:58 | 37.30392 | 25.99423 | 37042 ft | 488 kts | 165° |
| 2026-04-28 21:58 | 37.23944 | 26.02114 | 37052 ft | 488 kts | 165° |
| 2026-04-28 21:59 | 37.17492 | 26.04802 | 37051 ft | 488 kts | 165° |
| 2026-04-28 22:00 | 37.07858 | 26.08807 | 37042 ft | 488 kts | 165° |
| 2026-04-28 22:00 | 37.01408 | 26.11482 | 37042 ft | 488 kts | 165° |
| 2026-04-28 22:01 | 36.94955 | 26.14154 | 37038 ft | 488 kts | 165° |
| 2026-04-28 22:01 | 36.88541 | 26.16805 | 37033 ft | 489 kts | 165° |
| 2026-04-28 22:02 | 36.82067 | 26.19475 | 37039 ft | 489 kts | 165° |
| 2026-04-28 22:02 | 36.75585 | 26.22145 | 37034 ft | 490 kts | 165° |
| 2026-04-28 22:03 | 36.69115 | 26.24805 | 37037 ft | 490 kts | 165° |
| 2026-04-28 22:03 | 36.62674 | 26.27448 | 37035 ft | 490 kts | 165° |
| 2026-04-28 22:04 | 36.56190 | 26.30103 | 37036 ft | 491 kts | 165° |
| 2026-04-28 22:04 | 36.49685 | 26.32763 | 37035 ft | 491 kts | 165° |
| 2026-04-28 22:05 | 36.43191 | 26.35414 | 37038 ft | 491 kts | 165° |
| 2026-04-28 22:05 | 36.36687 | 26.38064 | 37032 ft | 492 kts | 165° |
| 2026-04-28 22:06 | 36.30217 | 26.40696 | 37034 ft | 492 kts | 165° |
| 2026-04-28 22:06 | 36.23697 | 26.43343 | 37038 ft | 492 kts | 165° |
| 2026-04-28 22:07 | 36.17179 | 26.45986 | 37039 ft | 492 kts | 165° |
| 2026-04-28 22:07 | 36.10661 | 26.48623 | 37038 ft | 493 kts | 165° |
| 2026-04-28 22:08 | 36.04139 | 26.51257 | 37037 ft | 493 kts | 165° |
| 2026-04-28 22:08 | 35.97656 | 26.53871 | 37038 ft | 493 kts | 165° |
| 2026-04-28 22:09 | 35.91112 | 26.56505 | 37036 ft | 493 kts | 165° |
| 2026-04-28 22:09 | 35.84618 | 26.59114 | 37039 ft | 493 kts | 165° |
| 2026-04-28 22:10 | 35.78079 | 26.61737 | 37040 ft | 494 kts | 165° |
| 2026-04-28 22:10 | 35.71541 | 26.64355 | 37037 ft | 494 kts | 165° |
| 2026-04-28 22:11 | 35.64990 | 26.66973 | 37036 ft | 494 kts | 165° |
| 2026-04-28 22:11 | 35.58499 | 26.69564 | 37034 ft | 494 kts | 165° |
| 2026-04-28 22:12 | 35.51949 | 26.72173 | 37037 ft | 494 kts | 165° |
| 2026-04-28 22:12 | 35.45393 | 26.74780 | 37038 ft | 495 kts | 165° |
| 2026-04-28 22:13 | 35.38865 | 26.77371 | 37035 ft | 495 kts | 165° |
| 2026-04-28 22:13 | 35.32306 | 26.79971 | 37028 ft | 496 kts | 166° |
| 2026-04-28 22:14 | 35.25718 | 26.82577 | 37029 ft | 496 kts | 166° |
| 2026-04-28 22:14 | 35.19144 | 26.85174 | 37030 ft | 496 kts | 166° |
| 2026-04-28 22:15 | 35.12560 | 26.87770 | 37034 ft | 497 kts | 166° |
| 2026-04-28 22:15 | 35.06015 | 26.90346 | 37030 ft | 497 kts | 166° |
| 2026-04-28 22:16 | 34.99417 | 26.92939 | 37030 ft | 498 kts | 166° |
| 2026-04-28 22:16 | 34.92805 | 26.95532 | 37027 ft | 498 kts | 166° |
| 2026-04-28 22:17 | 34.86194 | 26.98121 | 37040 ft | 498 kts | 166° |
| 2026-04-28 22:17 | 34.79631 | 27.00687 | 37036 ft | 498 kts | 166° |
| 2026-04-28 22:18 | 34.73016 | 27.03269 | 37036 ft | 499 kts | 166° |
| 2026-04-28 22:18 | 34.66414 | 27.05842 | 37034 ft | 499 kts | 166° |
| 2026-04-28 22:19 | 34.59785 | 27.08420 | 37037 ft | 499 kts | 166° |
| 2026-04-28 22:19 | 34.53162 | 27.10992 | 37035 ft | 500 kts | 166° |
| 2026-04-28 22:20 | 34.46533 | 27.13563 | 37035 ft | 500 kts | 166° |
| 2026-04-28 22:20 | 34.39935 | 27.16116 | 37033 ft | 500 kts | 166° |
| 2026-04-28 22:21 | 34.33292 | 27.18683 | 37036 ft | 501 kts | 166° |
| 2026-04-28 22:21 | 34.26658 | 27.21243 | 37035 ft | 501 kts | 166° |
| 2026-04-28 22:22 | 34.20001 | 27.23808 | 37036 ft | 501 kts | 166° |
| 2026-04-28 22:22 | 34.13327 | 27.26374 | 37035 ft | 502 kts | 166° |
| 2026-04-28 22:23 | 34.06707 | 27.28916 | 37036 ft | 502 kts | 167° |
| 2026-04-28 22:23 | 34.00045 | 27.31470 | 37035 ft | 502 kts | 167° |
| 2026-04-28 22:24 | 33.93579 | 27.34699 | 37036 ft | 509 kts | 149° |
| 2026-04-28 22:24 | 33.87648 | 27.39420 | 37037 ft | 511 kts | 149° |
| 2026-04-28 22:25 | 33.81758 | 27.44139 | 37038 ft | 511 kts | 149° |
| 2026-04-28 22:25 | 33.75834 | 27.48900 | 37037 ft | 511 kts | 149° |
| 2026-04-28 22:26 | 33.69910 | 27.53653 | 37037 ft | 512 kts | 149° |
| 2026-04-28 22:26 | 33.63975 | 27.58407 | 37039 ft | 512 kts | 149° |
| 2026-04-28 22:27 | 33.58041 | 27.63151 | 37040 ft | 512 kts | 149° |
| 2026-04-28 22:27 | 33.52143 | 27.67859 | 37039 ft | 512 kts | 149° |
| 2026-04-28 22:28 | 33.46189 | 27.72604 | 37037 ft | 512 kts | 149° |
| 2026-04-28 22:28 | 33.40279 | 27.77306 | 37038 ft | 513 kts | 149° |
| 2026-04-28 22:29 | 33.34331 | 27.82031 | 37037 ft | 513 kts | 149° |
| 2026-04-28 22:29 | 33.29342 | 27.85987 | 37038 ft | 513 kts | 149° |
| 2026-04-28 22:30 | 33.23380 | 27.90708 | 37038 ft | 514 kts | 149° |
| 2026-04-28 22:30 | 33.17454 | 27.95393 | 37037 ft | 514 kts | 149° |
| 2026-04-28 22:31 | 33.11484 | 28.00104 | 37034 ft | 514 kts | 149° |
| 2026-04-28 22:31 | 33.05837 | 28.04554 | 37035 ft | 514 kts | 149° |
| 2026-04-28 22:32 | 32.99854 | 28.09260 | 37036 ft | 514 kts | 149° |
| 2026-04-28 22:32 | 32.93915 | 28.13925 | 37036 ft | 514 kts | 149° |
| 2026-04-28 22:33 | 32.87935 | 28.18614 | 37035 ft | 514 kts | 149° |
| 2026-04-28 22:33 | 32.81943 | 28.23305 | 37041 ft | 514 kts | 149° |
| 2026-04-28 22:34 | 32.75992 | 28.27956 | 37039 ft | 515 kts | 149° |
| 2026-04-28 22:34 | 32.70004 | 28.32628 | 37044 ft | 515 kts | 150° |
| 2026-04-28 22:35 | 32.64012 | 28.37295 | 37038 ft | 515 kts | 150° |
| 2026-04-28 22:35 | 32.58019 | 28.41957 | 37038 ft | 515 kts | 150° |
| 2026-04-28 22:36 | 32.52006 | 28.46626 | 37037 ft | 515 kts | 150° |
| 2026-04-28 22:36 | 32.46037 | 28.51252 | 37038 ft | 516 kts | 150° |
| 2026-04-28 22:37 | 32.40015 | 28.55913 | 37041 ft | 516 kts | 150° |
| 2026-04-28 22:37 | 32.33992 | 28.60567 | 37041 ft | 516 kts | 150° |
| 2026-04-28 22:38 | 32.27967 | 28.65216 | 37042 ft | 517 kts | 150° |
| 2026-04-28 22:38 | 32.21981 | 28.69826 | 37038 ft | 517 kts | 150° |
| 2026-04-28 22:39 | 32.15949 | 28.74464 | 37037 ft | 517 kts | 150° |
| 2026-04-28 22:39 | 32.09897 | 28.79111 | 37037 ft | 517 kts | 150° |
| 2026-04-28 22:40 | 32.03885 | 28.83719 | 37039 ft | 518 kts | 150° |
| 2026-04-28 22:40 | 31.97842 | 28.88344 | 37039 ft | 518 kts | 150° |
| 2026-04-28 22:41 | 31.91795 | 28.92965 | 37040 ft | 518 kts | 150° |
| 2026-04-28 22:41 | 31.85741 | 28.97586 | 37035 ft | 518 kts | 150° |
| 2026-04-28 22:42 | 31.79688 | 29.02197 | 37036 ft | 518 kts | 151° |
| 2026-04-28 22:42 | 31.73435 | 29.06283 | 37024 ft | 507 kts | 168° |
| 2026-04-28 22:42 | 31.70036 | 29.07040 | 37041 ft | 491 kts | 184° |
| 2026-04-28 22:43 | 31.66630 | 29.07173 | 37024 ft | 491 kts | 185° |
| 2026-04-28 22:43 | 31.59830 | 29.07366 | 37045 ft | 491 kts | 186° |
| 2026-04-28 22:44 | 31.52996 | 29.07477 | 37028 ft | 490 kts | 187° |
| 2026-04-28 22:44 | 31.46173 | 29.07574 | 37035 ft | 490 kts | 187° |
| 2026-04-28 22:45 | 31.39351 | 29.07670 | 37035 ft | 490 kts | 187° |
| 2026-04-28 22:45 | 31.32529 | 29.07765 | 37034 ft | 490 kts | 187° |
| 2026-04-28 22:46 | 31.25889 | 29.07859 | 37036 ft | 490 kts | 187° |
| 2026-04-28 22:46 | 31.19050 | 29.07955 | 37034 ft | 490 kts | 187° |
| 2026-04-28 22:47 | 31.12221 | 29.08054 | 37035 ft | 490 kts | 187° |
| 2026-04-28 22:47 | 31.05399 | 29.08152 | 37035 ft | 490 kts | 187° |
| 2026-04-28 22:48 | 30.98622 | 29.08249 | 37038 ft | 490 kts | 187° |
| 2026-04-28 22:48 | 30.91793 | 29.08347 | 37033 ft | 490 kts | 187° |
| 2026-04-28 22:49 | 30.84972 | 29.08444 | 37032 ft | 490 kts | 187° |
| 2026-04-28 22:49 | 30.78145 | 29.08542 | 37038 ft | 490 kts | 187° |
| 2026-04-28 22:50 | 30.71355 | 29.08639 | 37039 ft | 490 kts | 188° |
| 2026-04-28 22:50 | 30.64534 | 29.08736 | 37040 ft | 491 kts | 188° |
| 2026-04-28 22:51 | 30.57691 | 29.08834 | 37033 ft | 491 kts | 188° |
| 2026-04-28 22:51 | 30.50857 | 29.10105 | 37036 ft | 513 kts | 165° |
| 2026-04-28 22:51 | 30.47665 | 29.12067 | 37028 ft | 527 kts | 148° |
| 2026-04-28 22:52 | 30.44919 | 29.14940 | 37041 ft | 535 kts | 135° |
| 2026-04-28 22:52 | 30.39762 | 29.21187 | 37036 ft | 536 kts | 137° |
| 2026-04-28 22:53 | 30.34601 | 29.27365 | 37038 ft | 536 kts | 137° |
| 2026-04-28 22:53 | 30.29406 | 29.33581 | 37038 ft | 536 kts | 137° |
| 2026-04-28 22:54 | 30.24215 | 29.39782 | 37027 ft | 537 kts | 137° |
| 2026-04-28 22:54 | 30.19009 | 29.45991 | 37035 ft | 536 kts | 137° |
| 2026-04-28 22:55 | 30.13802 | 29.52191 | 37032 ft | 536 kts | 137° |
| 2026-04-28 22:55 | 30.08602 | 29.58372 | 37033 ft | 536 kts | 138° |
| 2026-04-28 22:56 | 30.03426 | 29.64517 | 37028 ft | 536 kts | 138° |
| 2026-04-28 22:56 | 29.98226 | 29.70678 | 37030 ft | 535 kts | 138° |
| 2026-04-28 22:57 | 29.93009 | 29.76850 | 37028 ft | 535 kts | 138° |
| 2026-04-28 22:57 | 29.87842 | 29.82954 | 37031 ft | 535 kts | 138° |
| 2026-04-28 22:58 | 29.82634 | 29.89096 | 37029 ft | 535 kts | 138° |
| 2026-04-28 22:58 | 29.77418 | 29.95238 | 37025 ft | 535 kts | 139° |
| 2026-04-28 22:59 | 29.72242 | 30.01322 | 37028 ft | 535 kts | 139° |
| 2026-04-28 22:59 | 29.67022 | 30.07450 | 37029 ft | 535 kts | 139° |
| 2026-04-28 23:00 | 29.61806 | 30.13563 | 37034 ft | 535 kts | 139° |
| 2026-04-28 23:00 | 29.56619 | 30.19633 | 37035 ft | 535 kts | 139° |
| 2026-04-28 23:01 | 29.51406 | 30.25723 | 37033 ft | 535 kts | 139° |
| 2026-04-28 23:01 | 29.46178 | 30.31822 | 37037 ft | 535 kts | 139° |
| 2026-04-28 23:02 | 29.40952 | 30.37911 | 37039 ft | 535 kts | 139° |
| 2026-04-28 23:02 | 29.35820 | 30.44046 | 37039 ft | 536 kts | 138° |
| 2026-04-28 23:03 | 29.30661 | 30.50203 | 37040 ft | 536 kts | 139° |
| 2026-04-28 23:03 | 29.25486 | 30.56367 | 37042 ft | 535 kts | 139° |
| 2026-04-28 23:04 | 29.20315 | 30.62516 | 37037 ft | 535 kts | 139° |
| 2026-04-28 23:04 | 29.12570 | 30.71710 | 37052 ft | 534 kts | 139° |
| 2026-04-28 23:05 | 29.07407 | 30.77826 | 37047 ft | 534 kts | 139° |
| 2026-04-28 23:05 | 29.02244 | 30.83934 | 37050 ft | 533 kts | 139° |
| 2026-04-28 23:06 | 28.97116 | 30.89990 | 37048 ft | 533 kts | 139° |
| 2026-04-28 23:06 | 28.91956 | 30.96075 | 37041 ft | 533 kts | 139° |
| 2026-04-28 23:07 | 28.86787 | 31.02162 | 37051 ft | 533 kts | 139° |
| 2026-04-28 23:07 | 28.81617 | 31.08240 | 37048 ft | 532 kts | 139° |
| 2026-04-28 23:08 | 28.76496 | 31.14252 | 37053 ft | 532 kts | 139° |
| 2026-04-28 23:08 | 28.71329 | 31.20311 | 37046 ft | 532 kts | 139° |
| 2026-04-28 23:09 | 28.66352 | 31.26585 | 37040 ft | 534 kts | 137° |
| 2026-04-28 23:09 | 28.61371 | 31.32856 | 37037 ft | 533 kts | 137° |
| 2026-04-28 23:10 | 28.57231 | 31.38057 | 37024 ft | 533 kts | 137° |
| 2026-04-28 23:10 | 28.52250 | 31.44304 | 37022 ft | 533 kts | 137° |
| 2026-04-28 23:11 | 28.46443 | 31.51576 | 37015 ft | 532 kts | 138° |
| 2026-04-28 23:11 | 28.42299 | 31.56757 | 37022 ft | 532 kts | 138° |
| 2026-04-28 23:12 | 28.37312 | 31.62984 | 37024 ft | 532 kts | 138° |
| 2026-04-28 23:12 | 28.32318 | 31.69210 | 37034 ft | 531 kts | 138° |
| 2026-04-28 23:13 | 28.27330 | 31.75420 | 37041 ft | 531 kts | 138° |
| 2026-04-28 23:13 | 28.22375 | 31.81578 | 37040 ft | 531 kts | 138° |
| 2026-04-28 23:14 | 28.17393 | 31.87762 | 37044 ft | 531 kts | 138° |
| 2026-04-28 23:14 | 28.12402 | 31.93948 | 37049 ft | 531 kts | 139° |
| 2026-04-28 23:15 | 28.07426 | 32.00106 | 37052 ft | 530 kts | 139° |
| 2026-04-28 23:15 | 28.02703 | 32.06559 | 37047 ft | 538 kts | 124° |
| 2026-04-28 23:16 | 27.99098 | 32.14012 | 37053 ft | 540 kts | 123° |
| 2026-04-28 23:16 | 27.95516 | 32.21412 | 36900 ft | 536 kts | 123° |
| 2026-04-28 23:17 | 27.93724 | 32.25128 | 35934 ft | 542 kts | 123° |
| 2026-04-28 23:17 | 27.91901 | 32.28904 | 34843 ft | 551 kts | 122° |
| 2026-04-28 23:17 | 27.90067 | 32.32699 | 34205 ft | 548 kts | 122° |
| 2026-04-28 23:17 | 27.88249 | 32.36458 | 33686 ft | 542 kts | 122° |
| 2026-04-28 23:18 | 27.86447 | 32.40182 | 33152 ft | 535 kts | 122° |
| 2026-04-28 23:18 | 27.84668 | 32.43852 | 32652 ft | 528 kts | 122° |
| 2026-04-28 23:18 | 27.82910 | 32.47478 | 32192 ft | 522 kts | 122° |
| 2026-04-28 23:18 | 27.81175 | 32.51051 | 31740 ft | 515 kts | 121° |
| 2026-04-28 23:19 | 27.79481 | 32.54539 | 31261 ft | 511 kts | 121° |
| 2026-04-28 23:19 | 27.77779 | 32.58039 | 30782 ft | 506 kts | 121° |
| 2026-04-28 23:19 | 27.76095 | 32.61501 | 30335 ft | 501 kts | 121° |
| 2026-04-28 23:19 | 27.74424 | 32.64932 | 29838 ft | 496 kts | 121° |
| 2026-04-28 23:20 | 27.72770 | 32.68324 | 29339 ft | 491 kts | 121° |
| 2026-04-28 23:20 | 27.71129 | 32.71688 | 28856 ft | 485 kts | 121° |
| 2026-04-28 23:20 | 27.69521 | 32.74982 | 28394 ft | 480 kts | 121° |
| 2026-04-28 23:20 | 27.67918 | 32.78263 | 27985 ft | 473 kts | 121° |
| 2026-04-28 23:21 | 27.66352 | 32.81467 | 27865 ft | 460 kts | 121° |
| 2026-04-28 23:21 | 27.64823 | 32.84592 | 27526 ft | 453 kts | 121° |
| 2026-04-28 23:21 | 27.63287 | 32.87728 | 26590 ft | 462 kts | 121° |
| 2026-04-28 23:21 | 27.61718 | 32.90928 | 25695 ft | 469 kts | 121° |
| 2026-04-28 23:22 | 27.60134 | 32.94160 | 24820 ft | 474 kts | 121° |
| 2026-04-28 23:22 | 27.58533 | 32.97422 | 23974 ft | 477 kts | 121° |
| 2026-04-28 23:22 | 27.56922 | 33.00703 | 23058 ft | 479 kts | 121° |
| 2026-04-28 23:22 | 27.55304 | 33.03995 | 22073 ft | 479 kts | 121° |
| 2026-04-28 23:23 | 27.53683 | 33.07290 | 21129 ft | 479 kts | 121° |
| 2026-04-28 23:23 | 27.52067 | 33.10575 | 20209 ft | 479 kts | 121° |
| 2026-04-28 23:23 | 27.50456 | 33.13843 | 19454 ft | 474 kts | 121° |
| 2026-04-28 23:23 | 27.48881 | 33.17039 | 18844 ft | 468 kts | 121° |
| 2026-04-28 23:24 | 27.47315 | 33.20212 | 18261 ft | 461 kts | 121° |
| 2026-04-28 23:24 | 27.45781 | 33.23321 | 17340 ft | 447 kts | 120° |
| 2026-04-28 23:24 | 27.44281 | 33.26358 | 16181 ft | 439 kts | 120° |
| 2026-04-28 23:24 | 27.42810 | 33.29334 | 15150 ft | 431 kts | 120° |
| 2026-04-28 23:25 | 27.41388 | 33.32207 | 14708 ft | 409 kts | 120° |
| 2026-04-28 23:25 | 27.40036 | 33.34938 | 14278 ft | 390 kts | 120° |
| 2026-04-28 23:25 | 27.38760 | 33.37516 | 13863 ft | 373 kts | 120° |
| 2026-04-28 23:25 | 27.37502 | 33.40013 | 13396 ft | 359 kts | 120° |
| 2026-04-28 23:26 | 27.36287 | 33.42407 | 13006 ft | 344 kts | 120° |
| 2026-04-28 23:26 | 27.35125 | 33.44699 | 12659 ft | 330 kts | 120° |
| 2026-04-28 23:26 | 27.33999 | 33.46919 | 12314 ft | 328 kts | 120° |
| 2026-04-28 23:26 | 27.33616 | 33.47676 | 12180 ft | 332 kts | 120° |
| 2026-04-28 23:27 | 27.32104 | 33.49933 | 11661 ft | 335 kts | 140° |
| 2026-04-28 23:27 | 27.30144 | 33.51319 | 11253 ft | 332 kts | 154° |
| 2026-04-28 23:27 | 27.28095 | 33.52511 | 10902 ft | 329 kts | 154° |
| 2026-04-28 23:27 | 27.26062 | 33.53681 | 10559 ft | 327 kts | 154° |
| 2026-04-28 23:28 | 27.24063 | 33.54820 | 10394 ft | 318 kts | 155° |
| 2026-04-28 23:28 | 27.22118 | 33.55920 | 10241 ft | 309 kts | 155° |
| 2026-04-28 23:28 | 27.20223 | 33.56990 | 10080 ft | 300 kts | 155° |
| 2026-04-28 23:28 | 27.18383 | 33.58027 | 9922 ft | 293 kts | 155° |
| 2026-04-28 23:29 | 27.16565 | 33.59051 | 9594 ft | 292 kts | 155° |
| 2026-04-28 23:29 | 27.14751 | 33.60072 | 9269 ft | 291 kts | 155° |
| 2026-04-28 23:29 | 27.12943 | 33.61089 | 8932 ft | 290 kts | 154° |
| 2026-04-28 23:29 | 27.11143 | 33.62101 | 8608 ft | 288 kts | 154° |
| 2026-04-28 23:30 | 27.09355 | 33.63105 | 8299 ft | 287 kts | 154° |
| 2026-04-28 23:30 | 27.07566 | 33.64111 | 7975 ft | 287 kts | 154° |
| 2026-04-28 23:30 | 27.05782 | 33.65113 | 7648 ft | 286 kts | 154° |
| 2026-04-28 23:30 | 27.04005 | 33.66111 | 7339 ft | 285 kts | 153° |
| 2026-04-28 23:31 | 27.02257 | 33.67092 | 7026 ft | 284 kts | 153° |
| 2026-04-28 23:31 | 27.00493 | 33.68081 | 6698 ft | 283 kts | 153° |
| 2026-04-28 23:31 | 26.98746 | 33.69060 | 6492 ft | 277 kts | 152° |
| 2026-04-28 23:31 | 26.97051 | 33.70010 | 6357 ft | 268 kts | 152° |
| 2026-04-28 23:32 | 26.95409 | 33.70930 | 6231 ft | 259 kts | 152° |
| 2026-04-28 23:32 | 26.93841 | 33.71840 | 6132 ft | 248 kts | 146° |
| 2026-04-28 23:32 | 26.92685 | 33.73216 | 5816 ft | 244 kts | 114° |
| 2026-04-28 23:32 | 26.92325 | 33.75011 | 5479 ft | 237 kts | 83° |
| 2026-04-28 23:33 | 26.92772 | 33.76760 | 5187 ft | 230 kts | 58° |
| 2026-04-28 23:33 | 26.93616 | 33.78272 | 4940 ft | 228 kts | 53° |
| 2026-04-28 23:33 | 26.94494 | 33.79756 | 4641 ft | 229 kts | 52° |
| 2026-04-28 23:33 | 26.95387 | 33.81236 | 4327 ft | 230 kts | 52° |
| 2026-04-28 23:34 | 26.96292 | 33.82720 | 4048 ft | 230 kts | 51° |
| 2026-04-28 23:34 | 26.97272 | 33.84118 | 3666 ft | 224 kts | 35° |
| 2026-04-28 23:34 | 26.98671 | 33.84663 | 3284 ft | 211 kts | 355° |
| 2026-04-28 23:34 | 27.00049 | 33.84330 | 3101 ft | 196 kts | 343° |
| 2026-04-28 23:35 | 27.01344 | 33.83958 | 2830 ft | 186 kts | 343° |
| 2026-04-28 23:35 | 27.02549 | 33.83610 | 2563 ft | 177 kts | 343° |
| 2026-04-28 23:35 | 27.03705 | 33.83272 | 2395 ft | 166 kts | 344° |
| 2026-04-28 23:35 | 27.04788 | 33.82956 | 2247 ft | 154 kts | 343° |
| 2026-04-28 23:36 | 27.05787 | 33.82662 | 2162 ft | 145 kts | 343° |
| 2026-04-28 23:36 | 27.06763 | 33.82375 | 2043 ft | 146 kts | 343° |
| 2026-04-28 23:36 | 27.07748 | 33.82086 | 1807 ft | 146 kts | 343° |
| 2026-04-28 23:36 | 27.08725 | 33.81798 | 1581 ft | 147 kts | 342° |
| 2026-04-28 23:37 | 27.09699 | 33.81513 | 1326 ft | 141 kts | 342° |
| 2026-04-28 23:37 | 27.10615 | 33.81245 | 1126 ft | 132 kts | 340° |
| 2026-04-28 23:37 | 27.11492 | 33.80982 | 923 ft | 130 kts | 341° |
| 2026-04-28 23:37 | 27.12369 | 33.80721 | 745 ft | 133 kts | 341° |
| 2026-04-28 23:38 | 27.13074 | 33.80515 | 646 ft | 136 kts | 342° |
| 2026-04-28 23:38 | 27.13843 | 33.80311 | 567 ft | 137 kts | 340° |
| 2026-04-28 23:38 | 27.14696 | 33.80065 | 371 ft | 134 kts | 339° |
| 2026-04-28 23:38 | 27.15565 | 33.79791 | 236 ft | 136 kts | 340° |
| 2026-04-28 23:39 | 27.16249 | 33.79585 | 132 ft | 144 kts | 340° |
| 2026-04-28 23:39 | 27.16830 | 33.79412 | 115 ft | 128 kts | 343° |
| 2026-04-28 23:39 | 27.17416 | 33.79235 | 101 ft | 105 kts | 347° |
| 2026-04-28 23:39 | 27.17999 | 33.79064 | 101 ft | 62 kts | 345° |
| 2026-04-28 23:40 | 27.18288 | 33.79000 | 103 ft | 36 kts | 358° |
| 2026-04-28 23:40 | 27.18487 | 33.79039 | 100 ft | 22 kts | 14° |
| 2026-04-28 23:40 | 27.18637 | 33.79069 | 98 ft | 23 kts | 356° |
| 2026-04-28 23:40 | 27.18736 | 33.79045 | 97 ft | 14 kts | 345° |
| 2026-04-28 23:41 | 27.18851 | 33.79010 | 92 ft | 19 kts | 345° |
| 2026-04-28 23:41 | 27.18942 | 33.79046 | 89 ft | 15 kts | 75° |
| 2026-04-28 23:41 | 27.18980 | 33.79211 | 68 ft | 27 kts | 75° |
| 2026-04-28 23:41 | 27.19038 | 33.79449 | 62 ft | 36 kts | 75° |
| 2026-04-28 23:42 | 27.19101 | 33.79715 | 56 ft | 29 kts | 76° |
| 2026-04-28 23:42 | 27.19125 | 33.79881 | 58 ft | 16 kts | 114° |
| 2026-04-28 23:42 | 27.19021 | 33.79927 | 59 ft | 18 kts | 166° |
| 2026-04-28 23:42 | 27.18880 | 33.79968 | 59 ft | 23 kts | 165° |
| 2026-04-28 23:43 | 27.18708 | 33.80019 | 53 ft | 28 kts | 165° |
| 2026-04-28 23:43 | 27.18503 | 33.80079 | 51 ft | 33 kts | 165° |
| 2026-04-28 23:43 | 27.18311 | 33.80137 | 54 ft | 18 kts | 165° |
| 2026-04-28 23:43 | 27.18181 | 33.80175 | 54 ft | 21 kts | 165° |
| 2026-04-28 23:44 | 27.18030 | 33.80220 | 52 ft | 24 kts | 166° |
| 2026-04-28 23:44 | 27.17873 | 33.80266 | 54 ft | 22 kts | 165° |
| 2026-04-28 23:44 | 27.17816 | 33.80345 | 59 ft | 14 kts | 77° |
| 2026-04-28 23:44 | 27.17843 | 33.80457 | 60 ft | 16 kts | 75° |
| 2026-04-28 23:45 | 27.17788 | 33.80543 | 59 ft | 12 kts | 166° |
| 2026-04-28 23:45 | 27.17752 | 33.80587 | 60 ft | 9 kts | 72° |
| 2026-04-28 23:45 | 27.17771 | 33.80647 | 59 ft | 7 kts | 75° |
| 2026-04-28 23:45 | 27.17775 | 33.80663 | 59 ft | 0 kts | 75° |